This is the latest recevied weather packets stored in our database for station/object NK7E-1. If no packets are shown the sender has not sent any weather packets the latest 1 day(s).
| Time | Temp. | Humidity | Pressure | Rain* | Wind** | Luminosity | Snow |
|---|---|---|---|---|---|---|---|
| 1836274375 | 27.78° C | 57% | 1015.2 hPa | 0 mm | 0.89 m/s, 148° | - | - |
| 1836274227 | 27.78° C | 58% | 1015.5 hPa | 0 mm | 2.24 m/s, 152° | - | - |
| 1778050801 | 15.56° C | 61% | 1015.2 hPa | 0 mm | 0 m/s | - | - |
| 1778050200 | 15.56° C | 58% | 1015.2 hPa | 0 mm | 0 m/s | - | - |
| 1778049601 | 15.56° C | 58% | 1015.2 hPa | 0 mm | 0 m/s | - | - |
| 1778049001 | 16.11° C | 58% | 1015.1 hPa | 0 mm | 0.45 m/s, 315° | - | - |
| 1778048400 | 16.11° C | 57% | 1015 hPa | 0 mm | 0 m/s | - | - |
| 1778047801 | 16.11° C | 55% | 1015.1 hPa | 0 mm | 0 m/s | - | - |
| 1778047201 | 16.67° C | 53% | 1015.1 hPa | 0 mm | 0 m/s | - | - |
| 1778046601 | 16.67° C | 52% | 1015.1 hPa | 0 mm | 0 m/s | - | - |
| 1778046001 | 17.22° C | 51% | 1015 hPa | 0 mm | 0.45 m/s, 281° | - | - |
| 1778045401 | 17.22° C | 51% | 1014.9 hPa | 0 mm | 0.45 m/s, 269° | - | - |
| 1778044801 | 17.22° C | 51% | 1014.9 hPa | 0 mm | 1.34 m/s, 323° | - | - |
| 1778044201 | 17.78° C | 49% | 1014.6 hPa | 0 mm | 1.34 m/s, 316° | - | - |
| 1778043601 | 17.78° C | 49% | 1014.6 hPa | 0 mm | 1.34 m/s, 333° | - | - |
| 1778043000 | 17.78° C | 50% | 1014.4 hPa | 0 mm | 1.34 m/s, 333° | - | - |
| 1778042400 | 18.33° C | 48% | 1014.3 hPa | 0 mm | 2.24 m/s, 327° | - | - |
| 1778041801 | 18.33° C | 47% | 1014.1 hPa | 0 mm | 2.68 m/s, 296° | - | - |
| 1778041201 | 18.33° C | 47% | 1014.1 hPa | 0 mm | 1.79 m/s, 284° | - | - |
| 1778040601 | 18.89° C | 47% | 1014 hPa | 0 mm | 1.34 m/s, 259° | - | - |
| 1778040003 | 18.89° C | 46% | 1013.8 hPa | 0 mm | 1.79 m/s, 274° | - | - |
| 1778039402 | 18.89° C | 45% | 1013.6 hPa | 0 mm | 2.68 m/s, 289° | - | - |
| 1778038802 | 18.89° C | 45% | 1013.5 hPa | 0 mm | 3.13 m/s, 275° | - | - |
| 1778038202 | 19.44° C | 44% | 1013.3 hPa | 0 mm | 2.68 m/s, 298° | - | - |
| 1778037602 | 19.44° C | 42% | 1013.1 hPa | 0 mm | 2.24 m/s, 271° | - | - |
* Rain latest hour (hover to see other rain measurements)
** Current wind speed in m/s (hover to see current wind gust speed)